Latest Coastal Weather Observations for Geelong Racecourse

IDV60701

Issued at 6:15 pm EST Thursday 21 August 2014 (issued every 10 minutes, with the page automatically refreshed every 10 minutes)

About coastal observations | Map of coastal stations | Coastal observations for VIC | Marine services | Other Formats
Station Details ID: 087184 Name: GEELONG RACECOURSE Lat: -38.17 Lon: 144.38 Height: 12.9 m
Data from the previous 72 hours. | See also: Recent months at Geelong Racecourse
Date/Time
EST
Temp

°C
Wind Pressure Rain
since 9am
mm
Weather Cloud Vis
km
Sea
Height
m
Swell
Dir
 
Speed
knots
Gust
knots
hPa Trend Height
m
Period
s
Dir
21/06:00pm 12.8 S 4 7 1027.9 - 0.0 - - - - - - -
21/05:30pm 13.7 ESE 4 7 1027.5 - 0.0 - - - - - - -
21/05:00pm 14.4 E 4 7 1027.3 - 0.0 - - - - - - -
21/04:30pm 14.8 E 5 7 1027.1 - 0.0 - - - - - - -
21/04:00pm 14.4 ENE 3 5 1027.0 - 0.0 - - - - - - -
21/03:30pm 14.1 NE 3 6 1027.1 - 0.0 - - - - - - -
21/03:00pm 13.8 ESE 2 4 1027.2 - 0.0 - - - - - - -
21/02:30pm 13.4 ENE 4 5 1027.3 - 0.0 - - - - - - -
21/02:00pm 12.9 ENE 4 6 1027.4 - 0.0 - - - - - - -
21/01:30pm 12.7 ENE 4 6 1027.7 - 0.0 - - - - - - -
21/01:00pm 12.6 NE 5 7 1028.0 - 0.0 - - - - - - -
21/12:30pm 13.0 NE 4 5 1028.3 - 0.0 - - - - - - -
21/12:00pm 13.3 NE 2 4 1028.7 - 0.0 - - - - - - -
21/11:30am 12.3 NNE 2 3 1029.2 - 0.0 - - - - - - -
21/11:00am 11.5 N 4 7 1029.4 - 0.0 - - - - - - -
21/10:30am 11.8 NE 2 5 1029.6 - 0.0 - - - - - - -
21/10:00am 11.2 NNE 4 5 1029.6 - 0.0 - - - - - - -
21/09:30am 10.6 WNW 2 4 1029.6 - 0.0 - - - - - - -
21/09:00am 9.0 CALM 0 0 1029.6 - 0.0 - - - - - - -
21/08:30am 7.6 W 1 2 1029.5 - 0.0 - - - - - - -
21/08:00am 6.0 CALM 0 0 1029.3 - 0.0 - - - - - - -
21/07:30am 4.8 S 3 5 1028.8 - 0.0 - - - - - - -
21/07:00am 5.2 S 2 3 1028.7 - 0.0 - - - - - - -
21/06:30am 5.5 CALM 0 0 1028.6 - 0.0 - - - - - - -
21/06:00am 5.2 NW 2 3 1028.5 - 0.0 - - - - - - -
21/05:30am 4.5 WNW 1 2 1028.4 - 0.0 - - - - - - -
21/05:00am 3.7 WNW 2 3 1028.4 - 0.0 - - - - - - -
21/04:30am 3.9 NNW 2 3 1028.3 - 0.0 - - - - - - -
21/04:00am 3.9 NNW 2 3 1028.2 - 0.0 - - - - - - -
21/03:30am 3.7 CALM 0 0 1028.3 - 0.0 - - - - - - -
21/03:00am 4.5 CALM 0 0 1028.2 - 0.0 - - - - - - -
21/02:30am 4.3 CALM 0 0 1028.2 - 0.0 - - - - - - -
21/02:00am 4.6 CALM 0 0 1028.2 - 0.0 - - - - - - -
21/01:30am 5.2 WNW 1 3 1028.3 - 0.0 - - - - - - -
21/01:00am 5.7 WSW 1 2 1028.2 - 0.0 - - - - - - -
21/12:30am 6.1 CALM 0 0 1028.2 - 0.0 - - - - - - -
21/12:00am 6.5 WSW 0 0 1028.2 - 0.0 - - - - - - -
 
Date/Time
EST
Temp

°C
Wind Pressure Rain
since 9am
mm
Weather Cloud Vis
km
Sea
Height
m
Swell
Dir
 
Speed
knots
Gust
knots
hPa Trend Height
m
Period
s
Dir
20/11:30pm 6.8 CALM 0 0 1028.3 - 0.0 - - - - - - -
20/11:00pm 7.0 CALM 0 0 1028.4 - 0.0 - - - - - - -
20/10:30pm 7.2 WSW 1 2 1028.5 - 0.0 - - - - - - -
20/10:00pm 6.8 WSW 1 2 1028.7 - 0.0 - - - - - - -
20/09:30pm 7.1 WSW 2 3 1028.7 - 0.0 - - - - - - -
20/09:00pm 7.3 W 2 2 1028.8 - 0.0 - - - - - - -
20/08:30pm 7.7 CALM 0 0 1028.7 - 0.0 - - - - - - -
20/08:00pm 7.4 CALM 0 0 1028.7 - 0.0 - - - - - - -
20/07:30pm 8.0 CALM 0 0 1028.6 - 0.0 - - - - - - -
20/07:00pm 8.2 SSW 1 1 1028.5 - 0.0 - - - - - - -
20/06:30pm 9.2 SSW 2 3 1028.1 - 0.0 - - - - - - -
20/06:00pm 10.4 S 5 7 1028.0 - 0.0 - - - - - - -
20/05:30pm 11.4 S 4 7 1027.7 - 0.0 - - - - - - -
20/05:00pm 11.9 S 5 8 1027.4 - 0.0 - - - - - - -
20/04:30pm 12.4 SSE 5 10 1027.2 - 0.0 - - - - - - -
20/04:00pm 11.9 S 5 8 1027.0 - 0.0 - - - - - - -
20/03:30pm 12.7 SSE 7 10 1026.8 - 0.0 - - - - - - -
20/03:00pm 11.8 S 9 11 1026.8 - 0.0 - - - - - - -
20/02:30pm 12.7 SE 7 9 1026.6 - 0.0 - - - - - - -
20/02:00pm 12.8 S 5 8 1026.5 - 0.0 - - - - - - -
20/01:30pm 12.4 SSW 7 9 1026.7 - 0.0 - - - - - - -
20/01:00pm 12.2 S 7 12 1026.8 - 0.0 - - - - - - -
20/12:30pm 12.2 S 4 6 1027.1 - 0.0 - - - - - - -
20/12:00pm 11.9 S 3 5 1027.4 - 0.0 - - - - - - -
20/11:30am 12.1 SW 5 7 1027.5 - 0.0 - - - - - - -
20/11:00am 12.2 CALM 0 3 1027.8 - 0.0 - - - - - - -
20/10:30am 11.6 NE 1 3 1027.7 - 0.0 - - - - - - -
20/10:00am 11.5 NNW 1 2 1027.7 - 0.0 - - - - - - -
20/09:30am 11.0 CALM 0 0 1027.4 - 0.0 - - - - - - -
20/09:00am 10.1 CALM 0 0 1027.4 - 0.2 - - - - - - -
20/08:30am 9.4 CALM 0 0 1027.2 - 0.2 - - - - - - -
20/08:00am 9.0 W 2 3 1026.8 - 0.2 - - - - - - -
20/07:30am 8.5 W 4 5 1026.7 - 0.2 - - - - - - -
20/07:00am 8.3 WSW 4 5 1026.5 - 0.2 - - - - - - -
20/06:30am 8.7 ENE 2 4 1026.1 - 0.2 - - - - - - -
20/06:00am 8.7 S 4 8 1026.0 - 0.2 - - - - - - -
20/05:30am 8.4 W 3 4 1025.8 - 0.2 - - - - - - -
20/05:00am 8.8 SSW 2 4 1025.8 - 0.2 - - - - - - -
20/04:30am 8.7 WSW 2 3 1025.6 - 0.2 - - - - - - -
20/04:00am 8.7 W 2 3 1025.6 - 0.2 - - - - - - -
20/03:30am 8.8 W 1 2 1025.6 - 0.2 - - - - - - -
20/03:00am 8.7 SW 1 2 1025.7 - 0.2 - - - - - - -
20/02:30am 8.9 SW 1 2 1025.7 - 0.2 - - - - - - -
20/02:00am 8.8 SW 1 2 1026.0 - 0.2 - - - - - - -
20/01:30am 8.6 SW 1 2 1026.1 - 0.2 - - - - - - -
20/01:00am 8.6 CALM 0 0 1026.1 - 0.2 - - - - - - -
20/12:30am 8.5 CALM 0 2 1026.2 - 0.2 - - - - - - -
20/12:00am 8.4 CALM 0 0 1026.2 - 0.2 - - - - - - -
 
Date/Time
EST
Temp

°C
Wind Pressure Rain
since 9am
mm
Weather Cloud Vis
km
Sea
Height
m
Swell
Dir
 
Speed
knots
Gust
knots
hPa Trend Height
m
Period
s
Dir
19/11:30pm 8.1 SW 3 4 1026.1 - 0.2 - - - - - - -
19/11:00pm 8.8 SSW 2 4 1026.2 - 0.2 - - - - - - -
19/10:30pm 10.0 SSE 5 7 1026.2 - 0.2 - - - - - - -
19/10:00pm 10.1 S 4 5 1026.3 - 0.2 - - - - - - -
19/09:30pm 10.4 S 5 6 1026.3 - 0.2 - - - - - - -
19/09:00pm 10.5 S 5 7 1026.1 - 0.2 - - - - - - -
19/08:30pm 10.5 S 6 8 1026.0 - 0.2 - - - - - - -
19/08:00pm 10.6 S 5 6 1025.9 - 0.2 - - - - - - -
19/07:30pm 10.6 S 4 6 1025.8 - 0.2 - - - - - - -
19/07:00pm 10.7 S 3 5 1025.6 - 0.2 - - - - - - -
19/06:30pm 10.9 SSE 4 6 1025.3 - 0.2 - - - - - - -
19/06:00pm 11.1 SSE 6 8 1025.0 - 0.2 - - - - - - -
19/05:30pm 11.3 S 5 6 1024.8 - 0.2 - - - - - - -
19/05:00pm 11.6 S 6 8 1024.7 - 0.2 - - - - - - -
19/04:30pm 11.9 S 7 9 1024.7 - 0.2 - - - - - - -
19/04:00pm 12.0 S 8 11 1024.5 - 0.2 - - - - - - -
19/03:30pm 12.2 S 9 12 1024.5 - 0.2 - - - - - - -
19/03:00pm 12.2 S 8 11 1024.3 - 0.2 - - - - - - -
19/02:30pm 12.2 SSE 8 11 1024.3 - 0.2 - - - - - - -
19/02:00pm 12.2 S 8 11 1024.2 - 0.2 - - - - - - -
19/01:30pm 12.7 SSE 8 12 1024.4 - 0.2 - - - - - - -
19/01:00pm 12.8 S 8 11 1024.6 - 0.0 - - - - - - -
19/12:30pm 12.5 S 8 12 1024.8 - 0.0 - - - - - - -
19/12:00pm 12.6 SSE 8 11 1025.1 - 0.0 - - - - - - -
19/11:30am 12.8 S 8 11 1025.3 - 0.0 - - - - - - -
19/11:00am 12.9 S 7 11 1025.4 - 0.0 - - - - - - -
19/10:30am 12.4 SSE 7 11 1025.4 - 0.0 - - - - - - -
19/10:00am 12.3 SSE 6 9 1025.4 - 0.0 - - - - - - -
19/09:30am 11.8 S 7 10 1025.4 - 0.0 - - - - - - -
19/09:00am 11.5 SSE 6 10 1025.2 - 1.4 - - - - - - -
19/08:30am 11.2 SSE 5 7 1025.1 - 1.4 - - - - - - -
19/08:00am 10.8 SSE 5 6 1024.8 - 1.4 - - - - - - -
19/07:30am 10.6 S 6 8 1024.6 - 1.4 - - - - - - -
19/07:00am 10.6 S 8 10 1024.4 - 1.4 - - - - - - -
19/06:30am 10.4 S 6 10 1024.1 - 1.4 - - - - - - -
19/06:00am 10.6 SSE 7 10 1023.8 - 1.4 - - - - - - -
19/05:30am 10.7 S 8 11 1023.6 - 1.4 - - - - - - -
19/05:00am 10.5 S 6 8 1023.5 - 1.4 - - - - - - -
19/04:30am 10.7 S 6 8 1023.3 - 1.4 - - - - - - -
19/04:00am 10.2 S 5 7 1023.3 - 1.4 - - - - - - -
19/03:30am 10.1 SSW 6 7 1023.3 - 1.4 - - - - - - -
19/03:00am 10.3 S 7 10 1023.3 - 1.4 - - - - - - -
19/02:30am 10.1 S 3 4 1023.6 - 1.4 - - - - - - -
19/02:00am 10.3 SSE 4 6 1023.7 - 1.4 - - - - - - -
19/01:30am 10.2 SSE 7 10 1023.7 - 1.4 - - - - - - -
19/01:00am 10.0 SSE 7 11 1023.7 - 1.4 - - - - - - -
19/12:30am 9.6 SSE 6 8 1023.8 - 1.4 - - - - - - -
19/12:00am 9.7 S 6 9 1023.8 - 1.4 Rain - - - - - -
 
Date/Time
EST
Temp

°C
Wind Pressure Rain
since 9am
mm
Weather Cloud Vis
km
Sea
Height
m
Swell
Dir
 
Speed
knots
Gust
knots
hPa Trend Height
m
Period
s
Dir
18/11:30pm 9.9 S 7 10 1023.9 - 1.2 - - - - - - -
18/11:00pm 10.2 SSE 6 10 1023.9 - 1.0 - - - - - - -
18/10:30pm 10.3 S 7 10 1023.8 - 1.0 - - - - - - -
18/10:00pm 10.2 SSE 6 10 1023.6 - 1.0 - - - - - - -
18/09:30pm 10.2 SE 4 8 1023.6 - 1.0 - - - - - - -
18/09:00pm 10.4 SE 7 10 1023.5 - 0.8 - - - - - - -
18/08:30pm 11.0 ESE 5 8 1023.2 - 0.8 - - - - - - -
18/08:00pm 11.2 SSE 6 9 1022.8 - 0.8 - - - - - - -
18/07:30pm 11.2 SSE 6 9 1022.6 - 0.8 - - - - - - -
18/07:00pm 11.1 SSE 8 12 1022.5 - 0.8 - - - - - - -
18/06:30pm 11.5 SSE 5 8 1022.2 - 0.8 - - - - - - -

Other Formats:

Comma delimited format used in spreadsheet applications
http://www.bom.gov.au/fwo/IDV60701/IDV60701.94857.axf

JavaScript Object Notation format (JSON) in row-major order
http://www.bom.gov.au/fwo/IDV60701/IDV60701.94857.json